sensor_id;sensor_type;location;lat;lon;timestamp;P1;durP1;ratioP1;P2;durP2;ratioP2
11568;SDS011;5840;46.894;15.542;2023-05-10T00:00:32;7.43;;;6.80;;
11568;SDS011;5840;46.894;15.542;2023-05-10T00:02:59;7.40;;;6.80;;
11568;SDS011;5840;46.894;15.542;2023-05-10T00:05:25;6.47;;;6.03;;
11568;SDS011;5840;46.894;15.542;2023-05-10T00:07:52;7.50;;;6.90;;
11568;SDS011;5840;46.894;15.542;2023-05-10T00:10:19;7.40;;;6.90;;
11568;SDS011;5840;46.894;15.542;2023-05-10T00:12:46;7.00;;;6.50;;
11568;SDS011;5840;46.894;15.542;2023-05-10T00:15:14;6.73;;;6.23;;
11568;SDS011;5840;46.894;15.542;2023-05-10T00:17:41;7.00;;;6.50;;
11568;SDS011;5840;46.894;15.542;2023-05-10T00:20:08;7.73;;;7.07;;
11568;SDS011;5840;46.894;15.542;2023-05-10T00:22:36;6.77;;;6.27;;
11568;SDS011;5840;46.894;15.542;2023-05-10T00:25:03;7.57;;;7.00;;
11568;SDS011;5840;46.894;15.542;2023-05-10T00:27:31;7.50;;;6.90;;
11568;SDS011;5840;46.894;15.542;2023-05-10T00:29:58;7.83;;;7.13;;
11568;SDS011;5840;46.894;15.542;2023-05-10T00:32:26;7.40;;;6.80;;
11568;SDS011;5840;46.894;15.542;2023-05-10T00:34:53;7.73;;;7.03;;
11568;SDS011;5840;46.894;15.542;2023-05-10T00:37:20;7.57;;;6.97;;
11568;SDS011;5840;46.894;15.542;2023-05-10T00:39:47;7.53;;;6.93;;
11568;SDS011;5840;46.894;15.542;2023-05-10T00:42:13;8.17;;;7.53;;
11568;SDS011;5840;46.894;15.542;2023-05-10T00:44:40;8.50;;;7.80;;
11568;SDS011;5840;46.894;15.542;2023-05-10T00:47:07;8.03;;;7.37;;
11568;SDS011;5840;46.894;15.542;2023-05-10T00:49:36;8.10;;;7.40;;
11568;SDS011;5840;46.894;15.542;2023-05-10T00:52:03;8.30;;;7.70;;
11568;SDS011;5840;46.894;15.542;2023-05-10T00:54:30;8.10;;;7.40;;
11568;SDS011;5840;46.894;15.542;2023-05-10T00:56:57;7.67;;;7.00;;
11568;SDS011;5840;46.894;15.542;2023-05-10T00:59:23;8.90;;;8.10;;
11568;SDS011;5840;46.894;15.542;2023-05-10T01:01:50;8.77;;;8.03;;
11568;SDS011;5840;46.894;15.542;2023-05-10T01:04:19;8.57;;;7.87;;
11568;SDS011;5840;46.894;15.542;2023-05-10T01:06:51;8.57;;;7.97;;
11568;SDS011;5840;46.894;15.542;2023-05-10T01:09:18;7.47;;;6.97;;
11568;SDS011;5840;46.894;15.542;2023-05-10T01:11:45;8.53;;;7.83;;
11568;SDS011;5840;46.894;15.542;2023-05-10T01:14:13;8.50;;;7.80;;
11568;SDS011;5840;46.894;15.542;2023-05-10T01:16:40;8.37;;;7.77;;
11568;SDS011;5840;46.894;15.542;2023-05-10T01:19:10;8.00;;;7.40;;
11568;SDS011;5840;46.894;15.542;2023-05-10T01:21:44;8.43;;;7.70;;
11568;SDS011;5840;46.894;15.542;2023-05-10T01:27:17;8.33;;;7.73;;
11568;SDS011;5840;46.894;15.542;2023-05-10T01:30:05;7.80;;;7.20;;
11568;SDS011;5840;46.894;15.542;2023-05-10T01:32:42;7.73;;;7.20;;
11568;SDS011;5840;46.894;15.542;2023-05-10T01:35:14;8.23;;;7.53;;
11568;SDS011;5840;46.894;15.542;2023-05-10T01:37:45;7.90;;;7.33;;
11568;SDS011;5840;46.894;15.542;2023-05-10T01:40:17;7.83;;;7.23;;
11568;SDS011;5840;46.894;15.542;2023-05-10T01:42:51;8.17;;;7.53;;
11568;SDS011;5840;46.894;15.542;2023-05-10T01:45:22;8.83;;;8.13;;
11568;SDS011;5840;46.894;15.542;2023-05-10T01:48:01;7.97;;;7.20;;
11568;SDS011;5840;46.894;15.542;2023-05-10T01:50:32;8.03;;;7.33;;
11568;SDS011;5840;46.894;15.542;2023-05-10T01:53:01;7.10;;;6.60;;
11568;SDS011;5840;46.894;15.542;2023-05-10T01:55:32;8.90;;;8.10;;
11568;SDS011;5840;46.894;15.542;2023-05-10T01:58:03;8.13;;;7.53;;
11568;SDS011;5840;46.894;15.542;2023-05-10T02:00:34;8.53;;;7.83;;
11568;SDS011;5840;46.894;15.542;2023-05-10T02:03:04;9.37;;;8.67;;
11568;SDS011;5840;46.894;15.542;2023-05-10T02:05:33;8.70;;;8.00;;
11568;SDS011;5840;46.894;15.542;2023-05-10T02:08:01;8.40;;;7.80;;
11568;SDS011;5840;46.894;15.542;2023-05-10T02:10:32;8.50;;;7.73;;
11568;SDS011;5840;46.894;15.542;2023-05-10T02:13:00;8.80;;;8.10;;
11568;SDS011;5840;46.894;15.542;2023-05-10T02:15:28;8.93;;;8.23;;
11568;SDS011;5840;46.894;15.542;2023-05-10T02:17:57;8.93;;;8.23;;
11568;SDS011;5840;46.894;15.542;2023-05-10T02:20:27;9.23;;;8.43;;
11568;SDS011;5840;46.894;15.542;2023-05-10T02:22:55;8.77;;;8.07;;
11568;SDS011;5840;46.894;15.542;2023-05-10T02:25:24;8.77;;;8.10;;
11568;SDS011;5840;46.894;15.542;2023-05-10T02:27:53;8.50;;;7.90;;
11568;SDS011;5840;46.894;15.542;2023-05-10T02:30:22;8.57;;;7.87;;
11568;SDS011;5840;46.894;15.542;2023-05-10T02:32:50;9.33;;;8.57;;
11568;SDS011;5840;46.894;15.542;2023-05-10T02:35:17;9.30;;;8.50;;
11568;SDS011;5840;46.894;15.542;2023-05-10T02:37:46;9.03;;;8.33;;
11568;SDS011;5840;46.894;15.542;2023-05-10T02:40:14;9.43;;;8.73;;
11568;SDS011;5840;46.894;15.542;2023-05-10T02:42:43;10.97;;;9.97;;
11568;SDS011;5840;46.894;15.542;2023-05-10T02:45:13;9.17;;;8.43;;
11568;SDS011;5840;46.894;15.542;2023-05-10T02:47:43;10.30;;;9.43;;
11568;SDS011;5840;46.894;15.542;2023-05-10T02:50:10;11.47;;;10.13;;
11568;SDS011;5840;46.894;15.542;2023-05-10T02:52:39;10.40;;;9.43;;
11568;SDS011;5840;46.894;15.542;2023-05-10T02:55:11;10.13;;;9.43;;
11568;SDS011;5840;46.894;15.542;2023-05-10T02:57:41;10.03;;;9.33;;
11568;SDS011;5840;46.894;15.542;2023-05-10T03:00:14;10.47;;;9.57;;
11568;SDS011;5840;46.894;15.542;2023-05-10T03:02:41;10.03;;;9.23;;
11568;SDS011;5840;46.894;15.542;2023-05-10T03:05:08;9.77;;;8.97;;
11568;SDS011;5840;46.894;15.542;2023-05-10T03:07:35;10.83;;;9.83;;
11568;SDS011;5840;46.894;15.542;2023-05-10T03:10:02;11.50;;;10.50;;
11568;SDS011;5840;46.894;15.542;2023-05-10T03:12:33;10.10;;;9.23;;
11568;SDS011;5840;46.894;15.542;2023-05-10T03:15:13;10.43;;;9.43;;
11568;SDS011;5840;46.894;15.542;2023-05-10T03:17:46;10.80;;;9.90;;
11568;SDS011;5840;46.894;15.542;2023-05-10T03:20:20;10.40;;;9.50;;
11568;SDS011;5840;46.894;15.542;2023-05-10T03:22:51;10.03;;;9.20;;
11568;SDS011;5840;46.894;15.542;2023-05-10T03:25:21;10.43;;;9.43;;
11568;SDS011;5840;46.894;15.542;2023-05-10T03:27:51;10.47;;;9.67;;
11568;SDS011;5840;46.894;15.542;2023-05-10T03:30:18;10.83;;;9.87;;
11568;SDS011;5840;46.894;15.542;2023-05-10T03:32:46;9.90;;;9.13;;
11568;SDS011;5840;46.894;15.542;2023-05-10T03:35:13;11.13;;;10.17;;
11568;SDS011;5840;46.894;15.542;2023-05-10T03:37:40;11.90;;;11.00;;
11568;SDS011;5840;46.894;15.542;2023-05-10T03:40:07;11.23;;;10.33;;
11568;SDS011;5840;46.894;15.542;2023-05-10T03:42:35;11.30;;;10.20;;
11568;SDS011;5840;46.894;15.542;2023-05-10T03:45:03;10.33;;;9.53;;
11568;SDS011;5840;46.894;15.542;2023-05-10T03:47:30;10.33;;;9.43;;
11568;SDS011;5840;46.894;15.542;2023-05-10T03:49:57;10.53;;;9.63;;
11568;SDS011;5840;46.894;15.542;2023-05-10T03:52:24;9.97;;;9.10;;
11568;SDS011;5840;46.894;15.542;2023-05-10T03:54:51;11.33;;;10.37;;
11568;SDS011;5840;46.894;15.542;2023-05-10T03:57:18;10.20;;;9.40;;
11568;SDS011;5840;46.894;15.542;2023-05-10T03:59:45;9.80;;;9.07;;
11568;SDS011;5840;46.894;15.542;2023-05-10T04:02:13;10.67;;;9.63;;
11568;SDS011;5840;46.894;15.542;2023-05-10T04:04:40;11.00;;;10.10;;
11568;SDS011;5840;46.894;15.542;2023-05-10T04:07:06;10.17;;;9.27;;
11568;SDS011;5840;46.894;15.542;2023-05-10T04:09:35;11.70;;;10.70;;
11568;SDS011;5840;46.894;15.542;2023-05-10T04:12:02;10.33;;;9.57;;
11568;SDS011;5840;46.894;15.542;2023-05-10T04:14:29;9.93;;;9.13;;
11568;SDS011;5840;46.894;15.542;2023-05-10T04:16:56;10.20;;;9.40;;
11568;SDS011;5840;46.894;15.542;2023-05-10T04:19:24;10.97;;;9.80;;
11568;SDS011;5840;46.894;15.542;2023-05-10T04:21:54;10.70;;;9.70;;
11568;SDS011;5840;46.894;15.542;2023-05-10T04:24:21;10.30;;;9.40;;
11568;SDS011;5840;46.894;15.542;2023-05-10T04:26:48;10.70;;;9.83;;
11568;SDS011;5840;46.894;15.542;2023-05-10T04:29:15;10.60;;;9.80;;
11568;SDS011;5840;46.894;15.542;2023-05-10T04:31:42;10.83;;;9.90;;
11568;SDS011;5840;46.894;15.542;2023-05-10T04:34:08;11.57;;;10.60;;
11568;SDS011;5840;46.894;15.542;2023-05-10T04:36:37;9.93;;;9.13;;
11568;SDS011;5840;46.894;15.542;2023-05-10T04:39:03;9.90;;;9.10;;
11568;SDS011;5840;46.894;15.542;2023-05-10T04:41:30;10.83;;;9.93;;
11568;SDS011;5840;46.894;15.542;2023-05-10T04:43:57;10.67;;;9.67;;
11568;SDS011;5840;46.894;15.542;2023-05-10T04:46:24;10.40;;;9.53;;
11568;SDS011;5840;46.894;15.542;2023-05-10T04:48:51;10.83;;;9.93;;
11568;SDS011;5840;46.894;15.542;2023-05-10T04:51:17;9.87;;;9.17;;
11568;SDS011;5840;46.894;15.542;2023-05-10T04:53:46;9.80;;;8.87;;
11568;SDS011;5840;46.894;15.542;2023-05-10T04:56:13;11.10;;;10.20;;
11568;SDS011;5840;46.894;15.542;2023-05-10T04:58:41;11.17;;;10.37;;
11568;SDS011;5840;46.894;15.542;2023-05-10T05:01:08;10.73;;;9.73;;
11568;SDS011;5840;46.894;15.542;2023-05-10T05:03:35;12.33;;;11.13;;
11568;SDS011;5840;46.894;15.542;2023-05-10T05:06:03;11.20;;;10.20;;
11568;SDS011;5840;46.894;15.542;2023-05-10T05:08:30;17.23;;;12.87;;
11568;SDS011;5840;46.894;15.542;2023-05-10T05:10:58;17.87;;;12.97;;
11568;SDS011;5840;46.894;15.542;2023-05-10T05:13:25;19.37;;;14.20;;
11568;SDS011;5840;46.894;15.542;2023-05-10T05:15:52;18.73;;;14.80;;
11568;SDS011;5840;46.894;15.542;2023-05-10T05:18:19;14.90;;;13.37;;
11568;SDS011;5840;46.894;15.542;2023-05-10T05:20:46;17.50;;;14.60;;
11568;SDS011;5840;46.894;15.542;2023-05-10T05:23:13;18.47;;;16.63;;
11568;SDS011;5840;46.894;15.542;2023-05-10T05:25:39;18.53;;;16.63;;
11568;SDS011;5840;46.894;15.542;2023-05-10T05:28:08;19.73;;;16.73;;
11568;SDS011;5840;46.894;15.542;2023-05-10T05:30:35;19.10;;;17.10;;
11568;SDS011;5840;46.894;15.542;2023-05-10T05:33:02;18.50;;;16.70;;
11568;SDS011;5840;46.894;15.542;2023-05-10T05:35:29;20.57;;;18.37;;
11568;SDS011;5840;46.894;15.542;2023-05-10T05:37:55;23.63;;;21.07;;
11568;SDS011;5840;46.894;15.542;2023-05-10T05:40:22;21.53;;;19.50;;
11568;SDS011;5840;46.894;15.542;2023-05-10T05:42:49;19.10;;;17.33;;
11568;SDS011;5840;46.894;15.542;2023-05-10T05:45:17;19.27;;;17.23;;
11568;SDS011;5840;46.894;15.542;2023-05-10T05:47:45;20.07;;;18.30;;
11568;SDS011;5840;46.894;15.542;2023-05-10T05:50:12;18.90;;;17.10;;
11568;SDS011;5840;46.894;15.542;2023-05-10T05:52:39;17.67;;;16.03;;
11568;SDS011;5840;46.894;15.542;2023-05-10T05:55:06;17.93;;;16.33;;
11568;SDS011;5840;46.894;15.542;2023-05-10T05:57:33;18.07;;;16.17;;
11568;SDS011;5840;46.894;15.542;2023-05-10T06:00:00;16.23;;;14.83;;
11568;SDS011;5840;46.894;15.542;2023-05-10T06:02:29;16.37;;;14.97;;
11568;SDS011;5840;46.894;15.542;2023-05-10T06:04:55;16.27;;;14.77;;
11568;SDS011;5840;46.894;15.542;2023-05-10T06:07:22;15.30;;;13.90;;
11568;SDS011;5840;46.894;15.542;2023-05-10T06:09:50;14.27;;;13.00;;
11568;SDS011;5840;46.894;15.542;2023-05-10T06:12:17;14.60;;;13.30;;
11568;SDS011;5840;46.894;15.542;2023-05-10T06:14:44;14.50;;;13.23;;
11568;SDS011;5840;46.894;15.542;2023-05-10T06:17:10;13.90;;;12.53;;
11568;SDS011;5840;46.894;15.542;2023-05-10T06:19:39;13.60;;;12.30;;
11568;SDS011;5840;46.894;15.542;2023-05-10T06:22:05;12.57;;;11.47;;
11568;SDS011;5840;46.894;15.542;2023-05-10T06:24:32;13.27;;;11.97;;
11568;SDS011;5840;46.894;15.542;2023-05-10T06:26:59;12.33;;;11.33;;
11568;SDS011;5840;46.894;15.542;2023-05-10T06:29:27;12.70;;;11.50;;
11568;SDS011;5840;46.894;15.542;2023-05-10T06:31:54;12.90;;;11.80;;
11568;SDS011;5840;46.894;15.542;2023-05-10T06:34:20;12.83;;;11.63;;
11568;SDS011;5840;46.894;15.542;2023-05-10T06:36:49;14.93;;;11.83;;
11568;SDS011;5840;46.894;15.542;2023-05-10T06:39:16;12.53;;;11.23;;
11568;SDS011;5840;46.894;15.542;2023-05-10T06:41:43;13.57;;;12.27;;
11568;SDS011;5840;46.894;15.542;2023-05-10T06:44:10;12.53;;;11.40;;
11568;SDS011;5840;46.894;15.542;2023-05-10T06:46:38;13.27;;;12.07;;
11568;SDS011;5840;46.894;15.542;2023-05-10T06:49:04;11.80;;;10.60;;
11568;SDS011;5840;46.894;15.542;2023-05-10T06:51:31;12.20;;;11.10;;
11568;SDS011;5840;46.894;15.542;2023-05-10T06:54:00;11.83;;;10.83;;
11568;SDS011;5840;46.894;15.542;2023-05-10T06:56:26;12.33;;;11.23;;
11568;SDS011;5840;46.894;15.542;2023-05-10T06:58:53;12.10;;;10.83;;
11568;SDS011;5840;46.894;15.542;2023-05-10T07:01:20;11.80;;;10.20;;
11568;SDS011;5840;46.894;15.542;2023-05-10T07:03:47;11.77;;;10.53;;
11568;SDS011;5840;46.894;15.542;2023-05-10T07:06:14;11.63;;;10.53;;
11568;SDS011;5840;46.894;15.542;2023-05-10T07:08:41;13.47;;;10.87;;
11568;SDS011;5840;46.894;15.542;2023-05-10T07:11:09;11.53;;;10.53;;
11568;SDS011;5840;46.894;15.542;2023-05-10T07:13:36;12.67;;;11.57;;
11568;SDS011;5840;46.894;15.542;2023-05-10T07:16:06;13.37;;;12.07;;
11568;SDS011;5840;46.894;15.542;2023-05-10T07:18:33;12.27;;;10.60;;
11568;SDS011;5840;46.894;15.542;2023-05-10T07:21:00;11.87;;;10.97;;
11568;SDS011;5840;46.894;15.542;2023-05-10T07:23:27;12.23;;;11.27;;
11568;SDS011;5840;46.894;15.542;2023-05-10T07:25:54;11.17;;;10.17;;
11568;SDS011;5840;46.894;15.542;2023-05-10T07:28:23;11.47;;;10.57;;
11568;SDS011;5840;46.894;15.542;2023-05-10T07:30:50;11.50;;;10.60;;
11568;SDS011;5840;46.894;15.542;2023-05-10T07:33:17;11.33;;;10.27;;
11568;SDS011;5840;46.894;15.542;2023-05-10T07:35:44;11.80;;;10.90;;
11568;SDS011;5840;46.894;15.542;2023-05-10T07:38:11;11.63;;;10.63;;
11568;SDS011;5840;46.894;15.542;2023-05-10T07:40:38;11.63;;;10.50;;
11568;SDS011;5840;46.894;15.542;2023-05-10T07:43:05;11.43;;;10.37;;
11568;SDS011;5840;46.894;15.542;2023-05-10T07:45:34;10.83;;;9.90;;
11568;SDS011;5840;46.894;15.542;2023-05-10T07:48:01;11.10;;;10.13;;
11568;SDS011;5840;46.894;15.542;2023-05-10T07:50:28;11.57;;;10.57;;
11568;SDS011;5840;46.894;15.542;2023-05-10T07:52:55;11.57;;;10.67;;
11568;SDS011;5840;46.894;15.542;2023-05-10T07:55:21;10.77;;;9.90;;
11568;SDS011;5840;46.894;15.542;2023-05-10T07:57:48;11.10;;;10.20;;
11568;SDS011;5840;46.894;15.542;2023-05-10T08:00:16;11.50;;;10.50;;
11568;SDS011;5840;46.894;15.542;2023-05-10T08:02:46;11.63;;;10.47;;
11568;SDS011;5840;46.894;15.542;2023-05-10T08:05:13;11.83;;;10.83;;
11568;SDS011;5840;46.894;15.542;2023-05-10T08:07:40;12.10;;;10.90;;
11568;SDS011;5840;46.894;15.542;2023-05-10T08:10:08;12.30;;;11.20;;
11568;SDS011;5840;46.894;15.542;2023-05-10T08:12:36;12.47;;;11.23;;
11568;SDS011;5840;46.894;15.542;2023-05-10T08:15:04;12.07;;;10.97;;
11568;SDS011;5840;46.894;15.542;2023-05-10T08:17:31;11.60;;;10.47;;
11568;SDS011;5840;46.894;15.542;2023-05-10T08:20:00;11.60;;;10.50;;
11568;SDS011;5840;46.894;15.542;2023-05-10T08:22:26;10.93;;;10.03;;
11568;SDS011;5840;46.894;15.542;2023-05-10T08:24:53;10.77;;;9.80;;
11568;SDS011;5840;46.894;15.542;2023-05-10T08:27:20;11.47;;;10.50;;
11568;SDS011;5840;46.894;15.542;2023-05-10T08:29:47;11.97;;;10.87;;
11568;SDS011;5840;46.894;15.542;2023-05-10T08:32:14;11.37;;;10.33;;
11568;SDS011;5840;46.894;15.542;2023-05-10T08:34:41;11.60;;;10.50;;
11568;SDS011;5840;46.894;15.542;2023-05-10T08:37:09;11.27;;;10.23;;
11568;SDS011;5840;46.894;15.542;2023-05-10T08:39:38;11.63;;;10.57;;
11568;SDS011;5840;46.894;15.542;2023-05-10T08:42:05;11.40;;;10.40;;
11568;SDS011;5840;46.894;15.542;2023-05-10T08:44:34;10.80;;;9.90;;
11568;SDS011;5840;46.894;15.542;2023-05-10T08:47:02;11.50;;;10.50;;
11568;SDS011;5840;46.894;15.542;2023-05-10T08:49:31;11.03;;;10.03;;
11568;SDS011;5840;46.894;15.542;2023-05-10T08:51:59;11.60;;;10.60;;
11568;SDS011;5840;46.894;15.542;2023-05-10T08:54:30;11.53;;;10.53;;
11568;SDS011;5840;46.894;15.542;2023-05-10T08:56:57;11.17;;;9.90;;
11568;SDS011;5840;46.894;15.542;2023-05-10T08:59:25;11.07;;;10.17;;
11568;SDS011;5840;46.894;15.542;2023-05-10T09:01:52;11.60;;;10.60;;
11568;SDS011;5840;46.894;15.542;2023-05-10T09:04:21;12.33;;;11.33;;
11568;SDS011;5840;46.894;15.542;2023-05-10T09:06:49;11.27;;;10.43;;
11568;SDS011;5840;46.894;15.542;2023-05-10T09:09:16;10.50;;;9.60;;
11568;SDS011;5840;46.894;15.542;2023-05-10T09:11:44;10.70;;;9.80;;
11568;SDS011;5840;46.894;15.542;2023-05-10T09:14:12;10.63;;;9.77;;
11568;SDS011;5840;46.894;15.542;2023-05-10T09:16:39;11.47;;;10.07;;
11568;SDS011;5840;46.894;15.542;2023-05-10T09:19:07;9.90;;;9.10;;
11568;SDS011;5840;46.894;15.542;2023-05-10T09:21:34;9.53;;;8.67;;
11568;SDS011;5840;46.894;15.542;2023-05-10T09:24:03;10.13;;;9.43;;
11568;SDS011;5840;46.894;15.542;2023-05-10T09:26:31;10.00;;;9.13;;
11568;SDS011;5840;46.894;15.542;2023-05-10T09:28:59;9.70;;;8.90;;
11568;SDS011;5840;46.894;15.542;2023-05-10T09:31:42;9.87;;;9.07;;
11568;SDS011;5840;46.894;15.542;2023-05-10T09:34:11;10.00;;;9.17;;
11568;SDS011;5840;46.894;15.542;2023-05-10T09:36:52;9.30;;;8.50;;
11568;SDS011;5840;46.894;15.542;2023-05-10T09:39:20;9.70;;;8.73;;
11568;SDS011;5840;46.894;15.542;2023-05-10T09:41:55;9.87;;;8.93;;
11568;SDS011;5840;46.894;15.542;2023-05-10T09:44:24;8.70;;;7.97;;
11568;SDS011;5840;46.894;15.542;2023-05-10T09:46:52;9.53;;;8.70;;
11568;SDS011;5840;46.894;15.542;2023-05-10T09:49:19;9.57;;;8.77;;
11568;SDS011;5840;46.894;15.542;2023-05-10T09:51:46;9.70;;;8.83;;
11568;SDS011;5840;46.894;15.542;2023-05-10T09:54:14;8.17;;;7.47;;
11568;SDS011;5840;46.894;15.542;2023-05-10T09:56:42;8.90;;;8.20;;
11568;SDS011;5840;46.894;15.542;2023-05-10T09:59:09;8.97;;;8.33;;
11568;SDS011;5840;46.894;15.542;2023-05-10T10:01:38;9.20;;;8.40;;
11568;SDS011;5840;46.894;15.542;2023-05-10T10:04:06;8.30;;;7.60;;
11568;SDS011;5840;46.894;15.542;2023-05-10T10:06:36;8.40;;;7.80;;
11568;SDS011;5840;46.894;15.542;2023-05-10T10:09:04;8.10;;;7.50;;
11568;SDS011;5840;46.894;15.542;2023-05-10T10:11:31;7.80;;;7.10;;
11568;SDS011;5840;46.894;15.542;2023-05-10T10:13:59;7.37;;;6.73;;
11568;SDS011;5840;46.894;15.542;2023-05-10T10:16:27;7.43;;;6.77;;
11568;SDS011;5840;46.894;15.542;2023-05-10T10:18:57;7.03;;;6.43;;
11568;SDS011;5840;46.894;15.542;2023-05-10T10:21:24;8.00;;;7.30;;
11568;SDS011;5840;46.894;15.542;2023-05-10T10:23:51;6.70;;;6.20;;
11568;SDS011;5840;46.894;15.542;2023-05-10T10:26:18;6.73;;;6.20;;
11568;SDS011;5840;46.894;15.542;2023-05-10T10:28:48;8.20;;;7.50;;
11568;SDS011;5840;46.894;15.542;2023-05-10T10:31:24;6.97;;;6.47;;
11568;SDS011;5840;46.894;15.542;2023-05-10T10:34:01;7.40;;;6.80;;
11568;SDS011;5840;46.894;15.542;2023-05-10T10:36:32;7.97;;;7.37;;
11568;SDS011;5840;46.894;15.542;2023-05-10T10:39:08;7.23;;;6.73;;
11568;SDS011;5840;46.894;15.542;2023-05-10T10:41:36;7.00;;;6.40;;
11568;SDS011;5840;46.894;15.542;2023-05-10T10:44:24;7.37;;;6.83;;
11568;SDS011;5840;46.894;15.542;2023-05-10T10:47:00;8.30;;;7.50;;
11568;SDS011;5840;46.894;15.542;2023-05-10T10:49:32;7.67;;;7.07;;
11568;SDS011;5840;46.894;15.542;2023-05-10T10:54:52;7.43;;;6.93;;
11568;SDS011;5840;46.894;15.542;2023-05-10T10:57:20;7.70;;;7.20;;
11568;SDS011;5840;46.894;15.542;2023-05-10T10:59:47;7.47;;;6.97;;
11568;SDS011;5840;46.894;15.542;2023-05-10T11:02:34;6.93;;;6.47;;
11568;SDS011;5840;46.894;15.542;2023-05-10T11:08:13;6.10;;;5.70;;
11568;SDS011;5840;46.894;15.542;2023-05-10T11:10:52;6.30;;;5.80;;
11568;SDS011;5840;46.894;15.542;2023-05-10T11:13:29;6.10;;;5.70;;
11568;SDS011;5840;46.894;15.542;2023-05-10T11:15:56;5.93;;;5.53;;
11568;SDS011;5840;46.894;15.542;2023-05-10T11:18:25;5.87;;;5.43;;
11568;SDS011;5840;46.894;15.542;2023-05-10T11:20:56;6.53;;;6.07;;
11568;SDS011;5840;46.894;15.542;2023-05-10T11:23:29;5.73;;;5.33;;
11568;SDS011;5840;46.894;15.542;2023-05-10T11:25:56;4.97;;;4.57;;
11568;SDS011;5840;46.894;15.542;2023-05-10T11:28:25;5.50;;;5.10;;
11568;SDS011;5840;46.894;15.542;2023-05-10T11:30:52;6.77;;;6.23;;
11568;SDS011;5840;46.894;15.542;2023-05-10T11:33:19;5.83;;;5.50;;
11568;SDS011;5840;46.894;15.542;2023-05-10T11:35:46;6.67;;;6.07;;
11568;SDS011;5840;46.894;15.542;2023-05-10T11:38:14;7.23;;;6.50;;
11568;SDS011;5840;46.894;15.542;2023-05-10T11:40:41;6.77;;;6.13;;
11568;SDS011;5840;46.894;15.542;2023-05-10T11:43:09;6.53;;;6.03;;
11568;SDS011;5840;46.894;15.542;2023-05-10T11:45:37;6.97;;;6.43;;
11568;SDS011;5840;46.894;15.542;2023-05-10T11:48:05;7.33;;;6.83;;
11568;SDS011;5840;46.894;15.542;2023-05-10T11:50:33;7.10;;;6.60;;
11568;SDS011;5840;46.894;15.542;2023-05-10T11:53:00;7.30;;;6.80;;
11568;SDS011;5840;46.894;15.542;2023-05-10T11:55:28;7.07;;;6.30;;
11568;SDS011;5840;46.894;15.542;2023-05-10T11:57:59;6.60;;;6.10;;
11568;SDS011;5840;46.894;15.542;2023-05-10T12:00:27;6.97;;;6.47;;
11568;SDS011;5840;46.894;15.542;2023-05-10T12:02:55;7.67;;;6.73;;
11568;SDS011;5840;46.894;15.542;2023-05-10T12:05:21;6.10;;;5.70;;
11568;SDS011;5840;46.894;15.542;2023-05-10T12:07:49;5.60;;;5.20;;
11568;SDS011;5840;46.894;15.542;2023-05-10T12:10:15;6.47;;;5.97;;
11568;SDS011;5840;46.894;15.542;2023-05-10T12:12:51;6.80;;;6.40;;
11568;SDS011;5840;46.894;15.542;2023-05-10T12:15:19;7.23;;;6.40;;
11568;SDS011;5840;46.894;15.542;2023-05-10T12:17:47;6.73;;;6.13;;
11568;SDS011;5840;46.894;15.542;2023-05-10T12:20:15;5.93;;;5.43;;
11568;SDS011;5840;46.894;15.542;2023-05-10T12:22:46;6.97;;;6.27;;
11568;SDS011;5840;46.894;15.542;2023-05-10T12:25:13;6.33;;;5.87;;
11568;SDS011;5840;46.894;15.542;2023-05-10T12:27:41;4.93;;;4.60;;
11568;SDS011;5840;46.894;15.542;2023-05-10T12:30:19;5.03;;;4.63;;
11568;SDS011;5840;46.894;15.542;2023-05-10T12:32:47;5.47;;;5.07;;
11568;SDS011;5840;46.894;15.542;2023-05-10T12:35:14;5.47;;;5.17;;
11568;SDS011;5840;46.894;15.542;2023-05-10T12:37:42;5.80;;;5.30;;
11568;SDS011;5840;46.894;15.542;2023-05-10T12:40:09;5.47;;;5.07;;
11568;SDS011;5840;46.894;15.542;2023-05-10T12:42:37;5.10;;;4.80;;
11568;SDS011;5840;46.894;15.542;2023-05-10T12:45:05;5.17;;;4.77;;
11568;SDS011;5840;46.894;15.542;2023-05-10T12:47:35;4.77;;;4.37;;
11568;SDS011;5840;46.894;15.542;2023-05-10T12:50:04;4.80;;;4.50;;
11568;SDS011;5840;46.894;15.542;2023-05-10T12:52:31;5.20;;;4.90;;
11568;SDS011;5840;46.894;15.542;2023-05-10T12:54:58;5.27;;;4.93;;
11568;SDS011;5840;46.894;15.542;2023-05-10T12:57:25;5.10;;;4.77;;
11568;SDS011;5840;46.894;15.542;2023-05-10T12:59:52;5.37;;;4.87;;
11568;SDS011;5840;46.894;15.542;2023-05-10T13:02:20;5.40;;;4.97;;
11568;SDS011;5840;46.894;15.542;2023-05-10T13:04:49;4.97;;;4.43;;
11568;SDS011;5840;46.894;15.542;2023-05-10T13:07:16;4.70;;;4.30;;
11568;SDS011;5840;46.894;15.542;2023-05-10T13:09:43;4.90;;;4.40;;
11568;SDS011;5840;46.894;15.542;2023-05-10T13:12:10;4.70;;;4.40;;
11568;SDS011;5840;46.894;15.542;2023-05-10T13:14:37;4.97;;;4.57;;
11568;SDS011;5840;46.894;15.542;2023-05-10T13:17:05;4.53;;;4.23;;
11568;SDS011;5840;46.894;15.542;2023-05-10T13:19:32;4.43;;;4.13;;
11568;SDS011;5840;46.894;15.542;2023-05-10T13:22:00;4.60;;;4.30;;
11568;SDS011;5840;46.894;15.542;2023-05-10T13:24:27;4.23;;;3.93;;
11568;SDS011;5840;46.894;15.542;2023-05-10T13:26:54;4.60;;;4.30;;
11568;SDS011;5840;46.894;15.542;2023-05-10T13:29:21;4.50;;;4.20;;
11568;SDS011;5840;46.894;15.542;2023-05-10T13:31:48;4.50;;;4.20;;
11568;SDS011;5840;46.894;15.542;2023-05-10T13:34:15;4.17;;;3.97;;
11568;SDS011;5840;46.894;15.542;2023-05-10T13:36:45;4.30;;;4.10;;
11568;SDS011;5840;46.894;15.542;2023-05-10T13:39:13;4.70;;;4.30;;
11568;SDS011;5840;46.894;15.542;2023-05-10T13:41:40;4.77;;;4.40;;
11568;SDS011;5840;46.894;15.542;2023-05-10T13:44:07;5.47;;;4.97;;
11568;SDS011;5840;46.894;15.542;2023-05-10T13:46:34;4.90;;;4.60;;
11568;SDS011;5840;46.894;15.542;2023-05-10T13:49:01;4.93;;;4.63;;
11568;SDS011;5840;46.894;15.542;2023-05-10T13:51:28;4.50;;;4.20;;
11568;SDS011;5840;46.894;15.542;2023-05-10T13:53:56;4.87;;;4.50;;
11568;SDS011;5840;46.894;15.542;2023-05-10T13:56:24;4.60;;;4.30;;
11568;SDS011;5840;46.894;15.542;2023-05-10T13:58:51;4.70;;;4.40;;
11568;SDS011;5840;46.894;15.542;2023-05-10T14:01:18;4.93;;;4.50;;
11568;SDS011;5840;46.894;15.542;2023-05-10T14:03:45;4.70;;;4.30;;
11568;SDS011;5840;46.894;15.542;2023-05-10T14:06:13;4.73;;;4.33;;
11568;SDS011;5840;46.894;15.542;2023-05-10T14:08:39;4.30;;;4.10;;
11568;SDS011;5840;46.894;15.542;2023-05-10T14:11:06;4.93;;;4.53;;
11568;SDS011;5840;46.894;15.542;2023-05-10T14:13:34;4.83;;;4.27;;
11568;SDS011;5840;46.894;15.542;2023-05-10T14:16:01;4.30;;;4.00;;
11568;SDS011;5840;46.894;15.542;2023-05-10T14:18:28;4.10;;;3.80;;
11568;SDS011;5840;46.894;15.542;2023-05-10T14:20:56;4.00;;;3.80;;
11568;SDS011;5840;46.894;15.542;2023-05-10T14:23:22;3.73;;;3.53;;
11568;SDS011;5840;46.894;15.542;2023-05-10T14:25:50;4.33;;;4.03;;
11568;SDS011;5840;46.894;15.542;2023-05-10T14:28:18;4.30;;;3.90;;
11568;SDS011;5840;46.894;15.542;2023-05-10T14:30:47;3.93;;;3.73;;
11568;SDS011;5840;46.894;15.542;2023-05-10T14:33:13;3.80;;;3.60;;
11568;SDS011;5840;46.894;15.542;2023-05-10T14:35:40;4.37;;;4.07;;
11568;SDS011;5840;46.894;15.542;2023-05-10T14:38:07;3.47;;;3.27;;
11568;SDS011;5840;46.894;15.542;2023-05-10T14:40:35;3.40;;;3.20;;
11568;SDS011;5840;46.894;15.542;2023-05-10T14:43:02;3.30;;;3.10;;
11568;SDS011;5840;46.894;15.542;2023-05-10T14:45:29;3.43;;;3.23;;
11568;SDS011;5840;46.894;15.542;2023-05-10T14:47:57;3.30;;;3.00;;
11568;SDS011;5840;46.894;15.542;2023-05-10T14:50:24;3.37;;;3.10;;
11568;SDS011;5840;46.894;15.542;2023-05-10T14:52:51;3.60;;;3.40;;